sensor_id;sensor_type;location;lat;lon;timestamp;pressure;altitude;pressure_sealevel;temperature;humidity
19831;BME280;10076;52.008;4.708;2022-08-03T00:01:42;101518.34;;;22.91;100.00
19831;BME280;10076;52.008;4.708;2022-08-03T00:04:08;101524.28;;;22.87;100.00
19831;BME280;10076;52.008;4.708;2022-08-03T00:06:34;101509.94;;;22.94;100.00
19831;BME280;10076;52.008;4.708;2022-08-03T00:09:00;101511.63;;;22.87;100.00
19831;BME280;10076;52.008;4.708;2022-08-03T00:11:26;101514.84;;;22.91;100.00
19831;BME280;10076;52.008;4.708;2022-08-03T00:13:51;101517.19;;;22.78;100.00
19831;BME280;10076;52.008;4.708;2022-08-03T00:16:17;101509.31;;;22.84;100.00
19831;BME280;10076;52.008;4.708;2022-08-03T00:18:42;101512.84;;;22.69;100.00
19831;BME280;10076;52.008;4.708;2022-08-03T00:21:08;101514.31;;;22.79;100.00
19831;BME280;10076;52.008;4.708;2022-08-03T00:23:34;101518.56;;;22.82;100.00
19831;BME280;10076;52.008;4.708;2022-08-03T00:25:59;101512.81;;;22.77;100.00
19831;BME280;10076;52.008;4.708;2022-08-03T00:28:25;101513.19;;;22.58;100.00
19831;BME280;10076;52.008;4.708;2022-08-03T00:30:51;101509.81;;;22.64;100.00
19831;BME280;10076;52.008;4.708;2022-08-03T00:33:16;101510.31;;;22.59;100.00
19831;BME280;10076;52.008;4.708;2022-08-03T00:35:41;101514.16;;;22.65;100.00
19831;BME280;10076;52.008;4.708;2022-08-03T00:38:07;101509.66;;;22.49;100.00
19831;BME280;10076;52.008;4.708;2022-08-03T00:40:32;101505.59;;;22.53;100.00
19831;BME280;10076;52.008;4.708;2022-08-03T00:42:59;101506.09;;;22.65;100.00
19831;BME280;10076;52.008;4.708;2022-08-03T00:45:28;101507.63;;;22.43;100.00
19831;BME280;10076;52.008;4.708;2022-08-03T00:47:54;101502.06;;;22.37;100.00
19831;BME280;10076;52.008;4.708;2022-08-03T00:50:22;101494.50;;;22.64;100.00
19831;BME280;10076;52.008;4.708;2022-08-03T00:52:49;101491.97;;;22.63;100.00
19831;BME280;10076;52.008;4.708;2022-08-03T00:55:16;101502.03;;;22.77;100.00
19831;BME280;10076;52.008;4.708;2022-08-03T00:57:42;101496.19;;;22.65;100.00
19831;BME280;10076;52.008;4.708;2022-08-03T01:00:09;101496.84;;;22.59;100.00
19831;BME280;10076;52.008;4.708;2022-08-03T01:02:36;101498.03;;;22.57;100.00
19831;BME280;10076;52.008;4.708;2022-08-03T01:05:02;101501.22;;;22.44;100.00
19831;BME280;10076;52.008;4.708;2022-08-03T01:07:40;101496.34;;;22.40;100.00
19831;BME280;10076;52.008;4.708;2022-08-03T01:13:33;101491.97;;;22.31;100.00
19831;BME280;10076;52.008;4.708;2022-08-03T01:16:25;101486.56;;;22.31;100.00
19831;BME280;10076;52.008;4.708;2022-08-03T01:18:58;101487.22;;;22.17;100.00
19831;BME280;10076;52.008;4.708;2022-08-03T01:21:33;101483.22;;;22.29;100.00
19831;BME280;10076;52.008;4.708;2022-08-03T01:29:39;101485.59;;;22.40;100.00
19831;BME280;10076;52.008;4.708;2022-08-03T01:32:14;101486.94;;;22.44;100.00
19831;BME280;10076;52.008;4.708;2022-08-03T01:34:46;101492.66;;;22.41;100.00
19831;BME280;10076;52.008;4.708;2022-08-03T01:37:15;101484.22;;;22.36;100.00
19831;BME280;10076;52.008;4.708;2022-08-03T01:39:46;101488.72;;;22.04;100.00
19831;BME280;10076;52.008;4.708;2022-08-03T01:42:13;101488.22;;;22.00;100.00
19831;BME280;10076;52.008;4.708;2022-08-03T01:44:42;101497.28;;;22.07;100.00
19831;BME280;10076;52.008;4.708;2022-08-03T01:47:09;101488.00;;;21.86;100.00
19831;BME280;10076;52.008;4.708;2022-08-03T01:49:38;101485.13;;;21.95;100.00
19831;BME280;10076;52.008;4.708;2022-08-03T01:52:05;101492.88;;;21.90;100.00
19831;BME280;10076;52.008;4.708;2022-08-03T01:54:34;101490.53;;;21.95;100.00
19831;BME280;10076;52.008;4.708;2022-08-03T01:57:01;101485.50;;;22.08;100.00
19831;BME280;10076;52.008;4.708;2022-08-03T01:59:28;101481.78;;;21.93;100.00
19831;BME280;10076;52.008;4.708;2022-08-03T02:01:55;101484.63;;;21.84;100.00
19831;BME280;10076;52.008;4.708;2022-08-03T02:04:22;101494.06;;;21.96;100.00
19831;BME280;10076;52.008;4.708;2022-08-03T02:06:48;101479.72;;;21.79;100.00
19831;BME280;10076;52.008;4.708;2022-08-03T02:09:16;101477.75;;;21.89;100.00
19831;BME280;10076;52.008;4.708;2022-08-03T02:11:44;101476.72;;;21.90;100.00
19831;BME280;10076;52.008;4.708;2022-08-03T02:14:11;101482.81;;;22.00;100.00
19831;BME280;10076;52.008;4.708;2022-08-03T02:16:38;101480.44;;;21.89;100.00
19831;BME280;10076;52.008;4.708;2022-08-03T02:19:05;101475.53;;;21.77;100.00
19831;BME280;10076;52.008;4.708;2022-08-03T02:21:34;101480.03;;;21.68;100.00
19831;BME280;10076;52.008;4.708;2022-08-03T02:24:01;101479.88;;;21.70;100.00
19831;BME280;10076;52.008;4.708;2022-08-03T02:26:29;101480.06;;;21.76;100.00
19831;BME280;10076;52.008;4.708;2022-08-03T02:28:56;101481.75;;;21.77;100.00
19831;BME280;10076;52.008;4.708;2022-08-03T02:31:27;101479.00;;;21.54;100.00
19831;BME280;10076;52.008;4.708;2022-08-03T02:33:56;101476.00;;;21.64;100.00
19831;BME280;10076;52.008;4.708;2022-08-03T02:36:27;101463.59;;;21.71;100.00
19831;BME280;10076;52.008;4.708;2022-08-03T02:38:55;101465.78;;;21.68;100.00
19831;BME280;10076;52.008;4.708;2022-08-03T02:41:30;101468.59;;;21.66;100.00
19831;BME280;10076;52.008;4.708;2022-08-03T02:43:58;101463.03;;;21.60;100.00
19831;BME280;10076;52.008;4.708;2022-08-03T02:46:30;101454.16;;;21.67;100.00
19831;BME280;10076;52.008;4.708;2022-08-03T02:48:58;101464.22;;;21.57;100.00
19831;BME280;10076;52.008;4.708;2022-08-03T02:51:27;101467.66;;;21.83;100.00
19831;BME280;10076;52.008;4.708;2022-08-03T02:53:54;101461.56;;;21.65;100.00
19831;BME280;10076;52.008;4.708;2022-08-03T02:56:21;101474.28;;;21.55;100.00
19831;BME280;10076;52.008;4.708;2022-08-03T02:58:47;101474.06;;;21.16;100.00
19831;BME280;10076;52.008;4.708;2022-08-03T03:01:14;101467.81;;;21.41;100.00
19831;BME280;10076;52.008;4.708;2022-08-03T03:03:40;101462.25;;;21.34;100.00
19831;BME280;10076;52.008;4.708;2022-08-03T03:06:06;101461.72;;;21.31;100.00
19831;BME280;10076;52.008;4.708;2022-08-03T03:08:33;101462.69;;;21.22;100.00
19831;BME280;10076;52.008;4.708;2022-08-03T03:10:59;101458.66;;;21.18;100.00
19831;BME280;10076;52.008;4.708;2022-08-03T03:13:29;101454.03;;;21.36;100.00
19831;BME280;10076;52.008;4.708;2022-08-03T03:16:01;101459.16;;;21.21;100.00
19831;BME280;10076;52.008;4.708;2022-08-03T03:18:28;101452.53;;;21.41;100.00
19831;BME280;10076;52.008;4.708;2022-08-03T03:20:55;101452.84;;;21.38;100.00
19831;BME280;10076;52.008;4.708;2022-08-03T03:23:23;101451.78;;;21.23;100.00
19831;BME280;10076;52.008;4.708;2022-08-03T03:25:50;101456.13;;;21.16;100.00
19831;BME280;10076;52.008;4.708;2022-08-03T03:28:16;101459.81;;;21.15;100.00
19831;BME280;10076;52.008;4.708;2022-08-03T03:30:42;101460.63;;;21.08;100.00
19831;BME280;10076;52.008;4.708;2022-08-03T03:33:07;101464.72;;;21.20;100.00
19831;BME280;10076;52.008;4.708;2022-08-03T03:35:33;101465.41;;;21.30;100.00
19831;BME280;10076;52.008;4.708;2022-08-03T03:37:58;101464.72;;;21.28;100.00
19831;BME280;10076;52.008;4.708;2022-08-03T03:40:24;101458.53;;;21.27;100.00
19831;BME280;10076;52.008;4.708;2022-08-03T03:42:50;101463.31;;;21.16;100.00
19831;BME280;10076;52.008;4.708;2022-08-03T03:45:15;101465.66;;;21.11;100.00
19831;BME280;10076;52.008;4.708;2022-08-03T03:47:41;101458.06;;;21.06;100.00
19831;BME280;10076;52.008;4.708;2022-08-03T03:50:07;101459.09;;;21.05;100.00
19831;BME280;10076;52.008;4.708;2022-08-03T03:52:33;101461.94;;;20.79;100.00
19831;BME280;10076;52.008;4.708;2022-08-03T03:54:58;101465.50;;;20.87;100.00
19831;BME280;10076;52.008;4.708;2022-08-03T03:57:23;101461.13;;;20.86;100.00
19831;BME280;10076;52.008;4.708;2022-08-03T03:59:49;101469.97;;;21.04;100.00
19831;BME280;10076;52.008;4.708;2022-08-03T04:02:14;101478.00;;;20.96;100.00
19831;BME280;10076;52.008;4.708;2022-08-03T04:04:39;101470.78;;;20.96;100.00
19831;BME280;10076;52.008;4.708;2022-08-03T04:07:25;101476.03;;;21.06;100.00
19831;BME280;10076;52.008;4.708;2022-08-03T04:10:14;101467.97;;;21.06;100.00
19831;BME280;10076;52.008;4.708;2022-08-03T04:13:01;101465.16;;;20.82;100.00
19831;BME280;10076;52.008;4.708;2022-08-03T04:15:30;101468.53;;;20.84;100.00
19831;BME280;10076;52.008;4.708;2022-08-03T04:17:58;101476.94;;;20.89;100.00
19831;BME280;10076;52.008;4.708;2022-08-03T04:20:27;101470.31;;;21.01;100.00
19831;BME280;10076;52.008;4.708;2022-08-03T04:22:54;101475.34;;;21.04;100.00
19831;BME280;10076;52.008;4.708;2022-08-03T04:25:22;101474.50;;;21.03;100.00
19831;BME280;10076;52.008;4.708;2022-08-03T04:27:49;101475.69;;;21.01;100.00
19831;BME280;10076;52.008;4.708;2022-08-03T04:30:17;101477.31;;;20.94;100.00
19831;BME280;10076;52.008;4.708;2022-08-03T04:32:44;101471.94;;;20.94;100.00
19831;BME280;10076;52.008;4.708;2022-08-03T04:35:14;101471.63;;;20.97;100.00
19831;BME280;10076;52.008;4.708;2022-08-03T04:37:42;101483.41;;;21.04;100.00
19831;BME280;10076;52.008;4.708;2022-08-03T04:40:15;101478.63;;;20.90;100.00
19831;BME280;10076;52.008;4.708;2022-08-03T04:42:45;101480.31;;;20.91;100.00
19831;BME280;10076;52.008;4.708;2022-08-03T04:45:12;101477.03;;;20.80;100.00
19831;BME280;10076;52.008;4.708;2022-08-03T04:47:39;101481.78;;;20.85;100.00
19831;BME280;10076;52.008;4.708;2022-08-03T04:50:05;101482.25;;;20.81;100.00
19831;BME280;10076;52.008;4.708;2022-08-03T04:52:33;101489.94;;;20.76;100.00
19831;BME280;10076;52.008;4.708;2022-08-03T04:54:58;101486.44;;;20.76;100.00
19831;BME280;10076;52.008;4.708;2022-08-03T04:57:24;101488.13;;;21.02;100.00
19831;BME280;10076;52.008;4.708;2022-08-03T04:59:51;101496.56;;;20.89;100.00
19831;BME280;10076;52.008;4.708;2022-08-03T05:02:20;101496.84;;;21.04;100.00
19831;BME280;10076;52.008;4.708;2022-08-03T05:04:45;101489.84;;;21.11;100.00
19831;BME280;10076;52.008;4.708;2022-08-03T05:07:12;101497.00;;;21.02;100.00
19831;BME280;10076;52.008;4.708;2022-08-03T05:09:37;101497.38;;;21.07;100.00
19831;BME280;10076;52.008;4.708;2022-08-03T05:12:04;101503.16;;;21.20;100.00
19831;BME280;10076;52.008;4.708;2022-08-03T05:14:29;101495.78;;;21.22;100.00
19831;BME280;10076;52.008;4.708;2022-08-03T05:16:55;101498.94;;;21.18;100.00
19831;BME280;10076;52.008;4.708;2022-08-03T05:19:20;101506.72;;;21.29;100.00
19831;BME280;10076;52.008;4.708;2022-08-03T05:21:45;101504.47;;;21.16;100.00
19831;BME280;10076;52.008;4.708;2022-08-03T05:24:10;101513.25;;;21.26;100.00
19831;BME280;10076;52.008;4.708;2022-08-03T05:26:37;101518.00;;;21.32;100.00
19831;BME280;10076;52.008;4.708;2022-08-03T05:29:03;101518.53;;;21.36;100.00
19831;BME280;10076;52.008;4.708;2022-08-03T05:31:28;101516.25;;;21.49;100.00
19831;BME280;10076;52.008;4.708;2022-08-03T05:33:55;101520.38;;;21.68;100.00
19831;BME280;10076;52.008;4.708;2022-08-03T05:36:21;101517.31;;;21.63;100.00
19831;BME280;10076;52.008;4.708;2022-08-03T05:38:46;101517.72;;;21.84;100.00
19831;BME280;10076;52.008;4.708;2022-08-03T05:41:11;101515.38;;;21.81;100.00
19831;BME280;10076;52.008;4.708;2022-08-03T05:43:37;101516.41;;;21.96;100.00
19831;BME280;10076;52.008;4.708;2022-08-03T05:46:02;101515.91;;;21.93;100.00
19831;BME280;10076;52.008;4.708;2022-08-03T05:48:27;101514.91;;;21.94;100.00
19831;BME280;10076;52.008;4.708;2022-08-03T05:50:53;101515.63;;;22.04;100.00
19831;BME280;10076;52.008;4.708;2022-08-03T05:53:18;101512.25;;;22.02;100.00
19831;BME280;10076;52.008;4.708;2022-08-03T05:55:43;101517.47;;;22.11;100.00
19831;BME280;10076;52.008;4.708;2022-08-03T05:58:08;101512.41;;;22.08;100.00
19831;BME280;10076;52.008;4.708;2022-08-03T06:00:34;101511.44;;;22.17;100.00
19831;BME280;10076;52.008;4.708;2022-08-03T06:02:59;101514.47;;;22.22;100.00
19831;BME280;10076;52.008;4.708;2022-08-03T06:05:24;101511.81;;;22.38;100.00
19831;BME280;10076;52.008;4.708;2022-08-03T06:07:52;101506.09;;;22.49;100.00
19831;BME280;10076;52.008;4.708;2022-08-03T06:10:17;101507.13;;;22.40;100.00
19831;BME280;10076;52.008;4.708;2022-08-03T06:12:43;101515.03;;;22.41;100.00
19831;BME280;10076;52.008;4.708;2022-08-03T06:15:12;101509.47;;;22.43;100.00
19831;BME280;10076;52.008;4.708;2022-08-03T06:17:44;101507.47;;;22.45;100.00
19831;BME280;10076;52.008;4.708;2022-08-03T06:20:10;101509.28;;;22.44;100.00
19831;BME280;10076;52.008;4.708;2022-08-03T06:22:35;101512.16;;;22.43;100.00
19831;BME280;10076;52.008;4.708;2022-08-03T06:25:01;101511.31;;;22.58;100.00
19831;BME280;10076;52.008;4.708;2022-08-03T06:27:26;101510.47;;;22.66;100.00
19831;BME280;10076;52.008;4.708;2022-08-03T06:29:51;101520.59;;;22.56;100.00
19831;BME280;10076;52.008;4.708;2022-08-03T06:32:17;101517.72;;;22.65;100.00
19831;BME280;10076;52.008;4.708;2022-08-03T06:34:42;101515.53;;;22.69;100.00
19831;BME280;10076;52.008;4.708;2022-08-03T06:37:07;101507.78;;;22.66;100.00
19831;BME280;10076;52.008;4.708;2022-08-03T06:39:33;101519.22;;;22.92;100.00
19831;BME280;10076;52.008;4.708;2022-08-03T06:41:58;101506.56;;;22.92;100.00
19831;BME280;10076;52.008;4.708;2022-08-03T06:44:23;101504.72;;;23.08;100.00
19831;BME280;10076;52.008;4.708;2022-08-03T06:46:48;101524.41;;;23.17;100.00
19831;BME280;10076;52.008;4.708;2022-08-03T06:49:15;101513.81;;;23.15;100.00
19831;BME280;10076;52.008;4.708;2022-08-03T06:51:40;101519.72;;;23.03;100.00
19831;BME280;10076;52.008;4.708;2022-08-03T06:54:05;101521.53;;;23.26;100.00
19831;BME280;10076;52.008;4.708;2022-08-03T06:56:32;101525.09;;;23.19;100.00
19831;BME280;10076;52.008;4.708;2022-08-03T06:58:57;101522.75;;;23.08;100.00
19831;BME280;10076;52.008;4.708;2022-08-03T07:01:22;101525.84;;;23.51;100.00
19831;BME280;10076;52.008;4.708;2022-08-03T07:03:47;101523.47;;;23.56;100.00
19831;BME280;10076;52.008;4.708;2022-08-03T07:06:13;101524.09;;;23.74;100.00
19831;BME280;10076;52.008;4.708;2022-08-03T07:08:38;101521.16;;;23.83;100.00
19831;BME280;10076;52.008;4.708;2022-08-03T07:11:03;101522.34;;;23.81;100.00
19831;BME280;10076;52.008;4.708;2022-08-03T07:13:29;101526.53;;;23.91;100.00
19831;BME280;10076;52.008;4.708;2022-08-03T07:15:54;101533.94;;;23.89;100.00
19831;BME280;10076;52.008;4.708;2022-08-03T07:18:19;101535.91;;;23.73;100.00
19831;BME280;10076;52.008;4.708;2022-08-03T07:20:44;101536.00;;;23.87;100.00
19831;BME280;10076;52.008;4.708;2022-08-03T07:23:10;101539.59;;;24.02;100.00
19831;BME280;10076;52.008;4.708;2022-08-03T07:25:35;101538.69;;;24.18;100.00
19831;BME280;10076;52.008;4.708;2022-08-03T07:28:00;101541.06;;;24.13;100.00
19831;BME280;10076;52.008;4.708;2022-08-03T07:30:26;101544.69;;;24.28;100.00
19831;BME280;10076;52.008;4.708;2022-08-03T07:32:52;101544.75;;;24.20;100.00
19831;BME280;10076;52.008;4.708;2022-08-03T07:35:17;101553.69;;;24.20;100.00
19831;BME280;10076;52.008;4.708;2022-08-03T07:37:43;101555.63;;;24.34;100.00
19831;BME280;10076;52.008;4.708;2022-08-03T07:40:08;101553.50;;;24.22;100.00
19831;BME280;10076;52.008;4.708;2022-08-03T07:42:33;101561.19;;;24.33;100.00
19831;BME280;10076;52.008;4.708;2022-08-03T07:44:59;101556.41;;;24.12;100.00
19831;BME280;10076;52.008;4.708;2022-08-03T07:47:27;101549.75;;;24.31;100.00
19831;BME280;10076;52.008;4.708;2022-08-03T07:49:53;101561.28;;;24.17;100.00
19831;BME280;10076;52.008;4.708;2022-08-03T07:52:19;101557.28;;;24.13;100.00
19831;BME280;10076;52.008;4.708;2022-08-03T07:55:04;101553.19;;;24.17;100.00
19831;BME280;10076;52.008;4.708;2022-08-03T07:57:30;101559.91;;;24.21;100.00
19831;BME280;10076;52.008;4.708;2022-08-03T07:59:56;101557.56;;;24.48;100.00
19831;BME280;10076;52.008;4.708;2022-08-03T08:02:21;101566.56;;;24.40;100.00
19831;BME280;10076;52.008;4.708;2022-08-03T08:04:46;101565.38;;;24.35;100.00
19831;BME280;10076;52.008;4.708;2022-08-03T08:07:11;101565.22;;;24.37;100.00
19831;BME280;10076;52.008;4.708;2022-08-03T08:09:37;101554.94;;;24.32;100.00
19831;BME280;10076;52.008;4.708;2022-08-03T08:12:02;101564.97;;;24.24;100.00
19831;BME280;10076;52.008;4.708;2022-08-03T08:14:28;101564.78;;;24.25;100.00
19831;BME280;10076;52.008;4.708;2022-08-03T08:16:54;101564.03;;;24.39;100.00
19831;BME280;10076;52.008;4.708;2022-08-03T08:19:19;101566.22;;;24.43;100.00
19831;BME280;10076;52.008;4.708;2022-08-03T08:21:44;101563.41;;;24.59;100.00
19831;BME280;10076;52.008;4.708;2022-08-03T08:24:09;101569.06;;;24.72;100.00
19831;BME280;10076;52.008;4.708;2022-08-03T08:26:36;101560.22;;;24.78;100.00
19831;BME280;10076;52.008;4.708;2022-08-03T08:29:02;101558.28;;;24.87;100.00
19831;BME280;10076;52.008;4.708;2022-08-03T08:31:28;101561.03;;;25.01;100.00
19831;BME280;10076;52.008;4.708;2022-08-03T08:33:53;101567.78;;;25.19;100.00
19831;BME280;10076;52.008;4.708;2022-08-03T08:36:18;101564.16;;;25.27;100.00
19831;BME280;10076;52.008;4.708;2022-08-03T08:38:44;101567.13;;;25.17;100.00
19831;BME280;10076;52.008;4.708;2022-08-03T08:41:10;101568.84;;;25.33;100.00
19831;BME280;10076;52.008;4.708;2022-08-03T08:43:35;101576.47;;;25.44;100.00
19831;BME280;10076;52.008;4.708;2022-08-03T08:46:01;101557.34;;;25.45;100.00
19831;BME280;10076;52.008;4.708;2022-08-03T08:48:27;101568.38;;;25.58;100.00
19831;BME280;10076;52.008;4.708;2022-08-03T08:50:55;101554.22;;;25.71;100.00
19831;BME280;10076;52.008;4.708;2022-08-03T08:53:22;101564.47;;;25.89;100.00
19831;BME280;10076;52.008;4.708;2022-08-03T08:55:50;101564.28;;;26.05;100.00
19831;BME280;10076;52.008;4.708;2022-08-03T08:58:17;101565.09;;;26.06;100.00
19831;BME280;10076;52.008;4.708;2022-08-03T09:00:44;101558.75;;;25.99;100.00
19831;BME280;10076;52.008;4.708;2022-08-03T09:03:10;101564.66;;;26.23;100.00
19831;BME280;10076;52.008;4.708;2022-08-03T09:05:36;101562.28;;;26.49;100.00
19831;BME280;10076;52.008;4.708;2022-08-03T09:08:04;101561.38;;;26.42;100.00
19831;BME280;10076;52.008;4.708;2022-08-03T09:10:30;101564.09;;;26.42;100.00
19831;BME280;10076;52.008;4.708;2022-08-03T09:12:55;101564.22;;;26.55;100.00
19831;BME280;10076;52.008;4.708;2022-08-03T09:15:26;101569.00;;;26.74;100.00
19831;BME280;10076;52.008;4.708;2022-08-03T09:17:54;101572.66;;;26.87;100.00
19831;BME280;10076;52.008;4.708;2022-08-03T09:20:21;101570.13;;;27.00;100.00
19831;BME280;10076;52.008;4.708;2022-08-03T09:25:35;101571.97;;;27.54;100.00
19831;BME280;10076;52.008;4.708;2022-08-03T09:28:15;101582.16;;;28.20;100.00
19831;BME280;10076;52.008;4.708;2022-08-03T09:30:57;101581.03;;;28.61;100.00
19831;BME280;10076;52.008;4.708;2022-08-03T09:33:22;101584.16;;;28.65;100.00
19831;BME280;10076;52.008;4.708;2022-08-03T09:35:48;101583.50;;;28.43;100.00
19831;BME280;10076;52.008;4.708;2022-08-03T09:38:16;101579.44;;;28.20;100.00
19831;BME280;10076;52.008;4.708;2022-08-03T09:40:43;101577.19;;;28.36;100.00
19831;BME280;10076;52.008;4.708;2022-08-03T09:43:09;101584.97;;;28.39;100.00
19831;BME280;10076;52.008;4.708;2022-08-03T09:45:36;101588.94;;;28.50;100.00
19831;BME280;10076;52.008;4.708;2022-08-03T09:50:54;101576.81;;;29.81;100.00
19831;BME280;10076;52.008;4.708;2022-08-03T09:53:20;101580.41;;;30.69;100.00
19831;BME280;10076;52.008;4.708;2022-08-03T09:55:59;101582.53;;;31.22;100.00
19831;BME280;10076;52.008;4.708;2022-08-03T09:58:29;101583.22;;;31.96;100.00
19831;BME280;10076;52.008;4.708;2022-08-03T10:00:58;101581.00;;;33.10;100.00
19831;BME280;10076;52.008;4.708;2022-08-03T10:03:26;101593.63;;;33.22;100.00
19831;BME280;10076;52.008;4.708;2022-08-03T10:05:51;101580.53;;;33.47;100.00
19831;BME280;10076;52.008;4.708;2022-08-03T10:08:18;101581.72;;;33.74;100.00
19831;BME280;10076;52.008;4.708;2022-08-03T10:10:45;101576.94;;;34.87;100.00
19831;BME280;10076;52.008;4.708;2022-08-03T10:13:17;101574.22;;;35.74;95.39
19831;BME280;10076;52.008;4.708;2022-08-03T10:15:43;101581.34;;;35.54;95.14
19831;BME280;10076;52.008;4.708;2022-08-03T10:18:08;101574.06;;;36.23;92.68
19831;BME280;10076;52.008;4.708;2022-08-03T10:20:43;101580.81;;;37.16;85.22
19831;BME280;10076;52.008;4.708;2022-08-03T10:23:10;101579.88;;;37.73;82.41
19831;BME280;10076;52.008;4.708;2022-08-03T10:25:37;101579.22;;;36.89;83.36
19831;BME280;10076;52.008;4.708;2022-08-03T10:28:05;101574.59;;;36.94;81.89
19831;BME280;10076;52.008;4.708;2022-08-03T10:30:32;101570.63;;;36.59;82.67
19831;BME280;10076;52.008;4.708;2022-08-03T10:33:02;101571.16;;;37.14;82.41
19831;BME280;10076;52.008;4.708;2022-08-03T10:35:29;101575.28;;;37.11;81.86
19831;BME280;10076;52.008;4.708;2022-08-03T10:37:59;101562.88;;;37.45;79.68
19831;BME280;10076;52.008;4.708;2022-08-03T10:40:27;101571.69;;;37.93;79.55
19831;BME280;10076;52.008;4.708;2022-08-03T10:42:55;101576.69;;;38.82;76.03
19831;BME280;10076;52.008;4.708;2022-08-03T10:45:25;101574.78;;;39.07;71.45
19831;BME280;10076;52.008;4.708;2022-08-03T10:47:52;101562.59;;;39.23;69.00
19831;BME280;10076;52.008;4.708;2022-08-03T10:50:18;101574.22;;;39.40;69.36
19831;BME280;10076;52.008;4.708;2022-08-03T10:52:56;101564.09;;;40.04;66.12
19831;BME280;10076;52.008;4.708;2022-08-03T10:55:32;101570.41;;;41.00;63.66
19831;BME280;10076;52.008;4.708;2022-08-03T11:01:09;101568.03;;;42.76;55.95
19831;BME280;10076;52.008;4.708;2022-08-03T11:06:26;101553.19;;;41.83;56.78
19831;BME280;10076;52.008;4.708;2022-08-03T11:09:21;101552.88;;;41.38;55.72
19831;BME280;10076;52.008;4.708;2022-08-03T11:11:47;101550.13;;;42.08;54.86
19831;BME280;10076;52.008;4.708;2022-08-03T11:14:17;101555.22;;;43.12;52.14
19831;BME280;10076;52.008;4.708;2022-08-03T11:19:12;101550.09;;;43.91;50.81
19831;BME280;10076;52.008;4.708;2022-08-03T11:27:24;101549.00;;;44.75;44.40
19831;BME280;10076;52.008;4.708;2022-08-03T11:35:18;101538.91;;;44.31;42.71
19831;BME280;10076;52.008;4.708;2022-08-03T11:46:07;101551.28;;;45.17;41.21
19831;BME280;10076;52.008;4.708;2022-08-03T11:48:40;101549.63;;;45.16;41.40
19831;BME280;10076;52.008;4.708;2022-08-03T11:51:23;101540.63;;;44.97;41.18
19831;BME280;10076;52.008;4.708;2022-08-03T11:54:03;101547.16;;;44.36;42.36
19831;BME280;10076;52.008;4.708;2022-08-03T11:56:47;101543.00;;;46.37;41.37
19831;BME280;10076;52.008;4.708;2022-08-03T11:59:13;101549.75;;;47.03;38.56
19831;BME280;10076;52.008;4.708;2022-08-03T12:01:38;101547.25;;;46.26;39.75
19831;BME280;10076;52.008;4.708;2022-08-03T12:04:05;101545.53;;;45.22;41.02
19831;BME280;10076;52.008;4.708;2022-08-03T12:06:30;101534.72;;;45.51;41.45
19831;BME280;10076;52.008;4.708;2022-08-03T12:09:16;101541.56;;;46.90;39.79
19831;BME280;10076;52.008;4.708;2022-08-03T12:11:41;101539.13;;;47.43;39.50
19831;BME280;10076;52.008;4.708;2022-08-03T12:14:07;101530.22;;;48.56;37.06
19831;BME280;10076;52.008;4.708;2022-08-03T12:16:32;101536.84;;;48.02;37.70
19831;BME280;10076;52.008;4.708;2022-08-03T12:19:02;101535.03;;;48.55;36.15
19831;BME280;10076;52.008;4.708;2022-08-03T12:21:28;101535.66;;;47.46;37.00
19831;BME280;10076;52.008;4.708;2022-08-03T12:23:58;101530.16;;;46.11;37.98
19831;BME280;10076;52.008;4.708;2022-08-03T12:26:25;101529.19;;;45.07;39.83
19831;BME280;10076;52.008;4.708;2022-08-03T12:28:51;101532.16;;;45.11;40.53
19831;BME280;10076;52.008;4.708;2022-08-03T12:31:16;101522.50;;;45.47;39.96
19831;BME280;10076;52.008;4.708;2022-08-03T12:36:21;101527.38;;;44.46;41.40
19831;BME280;10076;52.008;4.708;2022-08-03T12:39:03;101512.59;;;43.29;43.43
19831;BME280;10076;52.008;4.708;2022-08-03T12:41:38;101521.50;;;43.58;44.04
19831;BME280;10076;52.008;4.708;2022-08-03T12:44:06;101514.00;;;44.69;42.64
19831;BME280;10076;52.008;4.708;2022-08-03T12:46:34;101517.06;;;44.46;42.03
19831;BME280;10076;52.008;4.708;2022-08-03T12:51:30;101517.53;;;42.87;44.03
19831;BME280;10076;52.008;4.708;2022-08-03T12:53:56;101506.31;;;42.05;46.18
19831;BME280;10076;52.008;4.708;2022-08-03T12:56:23;101507.88;;;41.70;47.58
19831;BME280;10076;52.008;4.708;2022-08-03T12:58:48;101508.75;;;41.37;48.53
19831;BME280;10076;52.008;4.708;2022-08-03T13:01:15;101502.19;;;39.70;52.80
19831;BME280;10076;52.008;4.708;2022-08-03T13:03:42;101507.75;;;38.11;58.64
19831;BME280;10076;52.008;4.708;2022-08-03T13:06:19;101500.03;;;37.11;64.75
19831;BME280;10076;52.008;4.708;2022-08-03T13:08:45;101487.88;;;36.18;70.86
19831;BME280;10076;52.008;4.708;2022-08-03T13:11:26;101487.47;;;35.62;76.34
19831;BME280;10076;52.008;4.708;2022-08-03T13:13:52;101492.41;;;35.06;82.08
19831;BME280;10076;52.008;4.708;2022-08-03T13:16:19;101485.56;;;34.92;83.25
19831;BME280;10076;52.008;4.708;2022-08-03T13:18:48;101492.22;;;34.63;84.97
19831;BME280;10076;52.008;4.708;2022-08-03T13:21:15;101485.06;;;34.62;86.87
19831;BME280;10076;52.008;4.708;2022-08-03T13:23:41;101479.84;;;34.60;86.08
19831;BME280;10076;52.008;4.708;2022-08-03T13:26:07;101484.22;;;34.17;87.94
19831;BME280;10076;52.008;4.708;2022-08-03T13:28:32;101481.31;;;33.68;88.99
19831;BME280;10076;52.008;4.708;2022-08-03T13:30:57;101483.34;;;33.38;91.94
19831;BME280;10076;52.008;4.708;2022-08-03T13:33:23;101474.69;;;33.18;93.25